Time;durP1;ratioP1;P1;durP2;ratioP2;P2;SDS_P1;SDS_P2;PMS_P1;PMS_P2;Temp;Humidity;BMP_temperature;BMP_pressure;BME280_temperature;BME280_humidity;BME280_pressure;Samples;Min_cycle;Max_cycle;Signal;HPM_P1;HPM_P2
2023/05/20 00:00:42;;;;;;;36.20;18.80;;;;;;;12.54;84.79;101250.23;107979;1272;22838;-80
2023/05/20 00:03:21;;;;;;;34.20;17.00;;;;;;;12.54;84.85;101251.20;108038;1274;22637;-80
2023/05/20 00:05:52;;;;;;;35.60;16.80;;;;;;;12.53;84.88;101251.73;107994;1275;23237;-79
2023/05/20 00:08:23;;;;;;;32.00;16.20;;;;;;;12.51;84.80;101249.40;108629;1267;23075;-80
2023/05/20 00:10:54;;;;;;;33.50;15.50;;;;;;;12.52;84.87;101251.77;108063;1271;25272;-80
2023/05/20 00:13:24;;;;;;;31.70;16.80;;;;;;;12.52;84.83;101249.31;107984;1275;22568;-81
2023/05/20 00:15:55;;;;;;;36.30;17.30;;;;;;;12.52;84.90;101249.16;108518;1275;23299;-80
2023/05/20 00:18:26;;;;;;;34.00;17.60;;;;;;;12.51;84.97;101250.06;108037;1274;25313;-80
2023/05/20 00:20:57;;;;;;;36.90;16.20;;;;;;;12.51;85.02;101249.96;107957;1269;22550;-80
2023/05/20 00:23:27;;;;;;;33.20;16.20;;;;;;;12.51;84.89;101252.61;108061;1271;22518;-80
2023/05/20 00:25:58;;;;;;;30.90;16.50;;;;;;;12.52;84.84;101253.08;108025;1268;22997;-80
2023/05/20 00:28:29;;;;;;;32.40;16.80;;;;;;;12.52;85.11;101250.90;108025;1267;22551;-80
2023/05/20 00:31:00;;;;;;;35.10;16.90;;;;;;;12.52;85.11;101252.33;108005;1275;23932;-80
2023/05/20 00:33:31;;;;;;;36.70;18.30;;;;;;;12.51;85.15;101249.90;108071;1271;22610;-80
2023/05/20 00:36:02;;;;;;;33.20;17.30;;;;;;;12.50;85.36;101248.56;108051;1270;22595;-80
2023/05/20 00:38:33;;;;;;;37.50;17.80;;;;;;;12.49;85.31;101251.27;108001;1269;24264;-79
2023/05/20 00:41:04;;;;;;;30.80;17.10;;;;;;;12.48;85.36;101251.64;108102;1271;22515;-80
2023/05/20 00:43:35;;;;;;;35.60;18.50;;;;;;;12.47;85.32;101253.05;108055;1267;22534;-80
2023/05/20 00:46:06;;;;;;;33.30;16.90;;;;;;;12.47;85.55;101248.41;107996;1274;24307;-80
2023/05/20 00:48:42;;;;;;;37.50;18.30;;;;;;;12.47;85.43;101244.09;107995;1274;22540;-80
2023/05/20 00:51:14;;;;;;;33.10;16.80;;;;;;;12.48;85.29;101245.07;108032;1268;26498;-79
2023/05/20 00:53:46;;;;;;;34.20;17.70;;;;;;;12.48;85.69;101241.70;108072;1267;22515;-80
2023/05/20 00:56:17;;;;;;;35.10;18.50;;;;;;;12.47;85.65;101239.91;108076;1274;25411;-80
2023/05/20 00:58:49;;;;;;;33.60;18.20;;;;;;;12.48;85.77;101244.11;108061;1273;23315;-79
2023/05/20 01:01:20;;;;;;;34.10;16.80;;;;;;;12.48;85.64;101245.45;108148;1274;24254;-80
2023/05/20 01:03:51;;;;;;;41.90;17.10;;;;;;;12.49;85.63;101243.59;107994;1274;25355;-79
2023/05/20 01:06:22;;;;;;;32.80;16.40;;;;;;;12.48;85.68;101246.35;108050;1274;23401;-80
2023/05/20 01:08:52;;;;;;;33.80;17.20;;;;;;;12.46;85.72;101248.43;108045;1270;23286;-80
2023/05/20 01:11:30;;;;;;;29.20;13.90;;;;;;;12.45;85.56;101243.43;108139;1274;22602;-80
2023/05/20 01:14:06;;;;;;;31.70;16.30;;;;;;;12.45;85.58;101243.98;108066;1274;22514;-79
2023/05/20 01:16:39;;;;;;;31.70;15.40;;;;;;;12.44;85.49;101242.83;108000;1273;23958;-80
2023/05/20 01:19:32;;;;;;;31.20;14.90;;;;;;;12.45;85.80;101242.42;108019;1275;24241;-80
2023/05/20 01:22:06;;;;;;;31.80;15.40;;;;;;;12.43;85.71;101237.92;108084;1274;22478;-80
2023/05/20 01:24:37;;;;;;;29.10;15.10;;;;;;;12.43;85.51;101234.75;108084;1274;22605;-80
2023/05/20 01:27:09;;;;;;;33.70;15.50;;;;;;;12.43;85.65;101232.02;107999;1270;24522;-80
2023/05/20 01:29:42;;;;;;;32.40;16.10;;;;;;;12.43;85.67;101232.42;110524;1270;22947;-80
2023/05/20 01:32:16;;;;;;;31.30;15.80;;;;;;;12.43;85.67;101236.48;109983;1267;25412;-80
2023/05/20 01:34:50;;;;;;;31.50;15.60;;;;;;;12.40;85.68;101236.39;108002;1269;25552;-80
2023/05/20 01:37:24;;;;;;;31.00;15.50;;;;;;;12.40;85.66;101239.61;109242;1274;22552;-79
2023/05/20 01:39:56;;;;;;;29.20;13.70;;;;;;;12.40;85.64;101241.65;108044;1275;24208;-80
2023/05/20 01:42:28;;;;;;;31.00;15.40;;;;;;;12.39;85.54;101240.05;110566;1270;22386;-80
2023/05/20 01:45:00;;;;;;;33.40;15.70;;;;;;;12.39;85.58;101246.20;110583;1273;22394;-80
2023/05/20 01:47:31;;;;;;;29.00;13.70;;;;;;;12.38;85.79;101246.42;110173;1274;22557;-80
2023/05/20 01:50:02;;;;;;;29.10;13.70;;;;;;;12.37;85.49;101240.92;108018;1267;22593;-80
2023/05/20 01:52:33;;;;;;;31.90;14.50;;;;;;;12.35;85.51;101238.61;108056;1267;26362;-80
2023/05/20 01:55:04;;;;;;;31.60;13.80;;;;;;;12.34;85.60;101238.12;108599;1267;25971;-80
2023/05/20 01:57:35;;;;;;;37.30;14.20;;;;;;;12.32;85.63;101233.73;108003;1267;22700;-80
2023/05/20 02:00:08;;;;;;;32.00;14.80;;;;;;;12.30;85.59;101236.75;108051;1267;23437;-80
2023/05/20 02:02:39;;;;;;;32.10;13.90;;;;;;;12.30;85.47;101234.66;110538;1274;22194;-80
2023/05/20 02:05:11;;;;;;;31.20;15.90;;;;;;;12.32;85.47;101231.48;108898;1272;22693;-80
2023/05/20 02:07:42;;;;;;;36.40;16.30;;;;;;;12.33;85.60;101237.13;110503;1274;22189;-80
2023/05/20 02:10:13;;;;;;;31.00;15.10;;;;;;;12.32;85.54;101237.21;110573;1274;22189;-80
2023/05/20 02:12:46;;;;;;;30.10;14.20;;;;;;;12.32;85.65;101236.58;110566;1274;22309;-80
2023/05/20 02:15:17;;;;;;;29.80;14.10;;;;;;;12.31;85.67;101237.27;110509;1266;22183;-80
2023/05/20 02:17:49;;;;;;;32.40;14.90;;;;;;;12.31;85.68;101239.45;109985;1274;25403;-80
2023/05/20 02:20:20;;;;;;;26.90;13.40;;;;;;;12.33;85.72;101245.21;107951;1270;25440;-79
2023/05/20 02:22:52;;;;;;;31.10;15.00;;;;;;;12.34;85.55;101243.70;107974;1270;23995;-80
2023/05/20 02:25:23;;;;;;;32.40;13.80;;;;;;;12.34;85.68;101239.05;110576;1274;22181;-80
2023/05/20 02:27:53;;;;;;;31.90;15.70;;;;;;;12.34;85.64;101240.58;109214;1267;22511;-80
2023/05/20 02:30:27;;;;;;;30.10;14.20;;;;;;;12.34;85.79;101238.17;108320;1274;22627;-80
2023/05/20 02:32:58;;;;;;;33.60;15.70;;;;;;;12.35;85.63;101237.19;108098;1267;22550;-80
2023/05/20 02:35:29;;;;;;;29.50;15.50;;;;;;;12.34;85.97;101235.71;107634;1267;22576;-80
2023/05/20 02:38:00;;;;;;;30.40;14.10;;;;;;;12.32;85.74;101236.34;107990;1260;23753;-81
2023/05/20 02:40:31;;;;;;;33.00;14.60;;;;;;;12.33;85.95;101242.17;108084;1267;24817;-80
2023/05/20 02:43:04;;;;;;;30.90;14.70;;;;;;;12.33;85.92;101244.06;108048;1274;24210;-81
2023/05/20 02:45:35;;;;;;;35.00;15.60;;;;;;;12.33;85.99;101238.21;108570;1274;22536;-81
2023/05/20 02:48:06;;;;;;;31.70;15.90;;;;;;;12.33;86.07;101238.88;108563;1273;22750;-81
2023/05/20 02:50:40;;;;;;;32.60;16.30;;;;;;;12.32;85.74;101231.05;108527;1274;25303;-80
2023/05/20 02:53:10;;;;;;;33.00;14.90;;;;;;;12.32;85.90;101228.84;108581;1266;22539;-81
2023/05/20 02:55:41;;;;;;;31.70;14.00;;;;;;;12.31;85.98;101227.75;108586;1267;22517;-80
2023/05/20 02:58:12;;;;;;;37.90;14.50;;;;;;;12.30;86.08;101229.96;108536;1274;23282;-80
2023/05/20 03:00:43;;;;;;;32.00;13.40;;;;;;;12.29;85.94;101232.54;108546;1264;22627;-80
2023/05/20 03:03:13;;;;;;;31.80;14.30;;;;;;;12.29;85.99;101227.14;108404;1267;26506;-80
2023/05/20 03:05:45;;;;;;;32.90;13.90;;;;;;;12.29;86.06;101224.64;108509;1274;22536;-81
2023/05/20 03:08:16;;;;;;;28.50;13.00;;;;;;;12.29;86.18;101223.38;108576;1270;25229;-80
2023/05/20 03:10:46;;;;;;;26.40;13.50;;;;;;;12.28;86.27;101227.73;108590;1267;22548;-81
2023/05/20 03:13:17;;;;;;;27.50;12.70;;;;;;;12.28;86.21;101230.92;108555;1274;23687;-81
2023/05/20 03:15:48;;;;;;;34.70;13.90;;;;;;;12.28;86.43;101234.04;108034;1267;24837;-81
2023/05/20 03:18:19;;;;;;;30.00;13.80;;;;;;;12.28;86.38;101234.14;108066;1259;22609;-81
2023/05/20 03:20:50;;;;;;;32.10;14.10;;;;;;;12.29;86.25;101228.81;107921;1274;25450;-81
2023/05/20 03:23:21;;;;;;;27.60;13.60;;;;;;;12.28;86.54;101225.09;108566;1267;25425;-81
2023/05/20 03:25:52;;;;;;;31.00;13.80;;;;;;;12.26;86.28;101228.23;108528;1274;22614;-81
2023/05/20 03:28:22;;;;;;;30.10;13.20;;;;;;;12.25;86.47;101229.27;108398;1274;22529;-81
2023/05/20 03:30:53;;;;;;;28.80;13.30;;;;;;;12.25;86.47;101228.09;108538;1274;24205;-81
2023/05/20 03:33:25;;;;;;;28.60;13.20;;;;;;;12.25;86.57;101227.23;108460;1267;22521;-81
2023/05/20 03:35:55;;;;;;;26.80;12.80;;;;;;;12.24;86.52;101223.90;108584;1265;22573;-81
2023/05/20 03:38:27;;;;;;;26.40;12.40;;;;;;;12.25;86.55;101237.31;108490;1270;24203;-81
2023/05/20 03:40:57;;;;;;;27.20;12.30;;;;;;;12.25;86.51;101238.18;108644;1270;25407;-81
2023/05/20 03:43:28;;;;;;;27.20;11.80;;;;;;;12.25;86.57;101238.83;108672;1267;22605;-81
2023/05/20 03:45:59;;;;;;;24.70;12.40;;;;;;;12.25;86.63;101243.00;108533;1272;23896;-81
2023/05/20 03:48:29;;;;;;;30.60;13.90;;;;;;;12.25;86.61;101245.15;108562;1267;22525;-81
2023/05/20 03:51:00;;;;;;;28.00;12.10;;;;;;;12.25;86.79;101243.52;108501;1267;24199;-81
2023/05/20 03:53:31;;;;;;;29.20;13.50;;;;;;;12.26;86.74;101252.61;108381;1270;24247;-81
2023/05/20 03:56:02;;;;;;;31.50;14.30;;;;;;;12.25;87.10;101247.70;108456;1266;22607;-80
2023/05/20 03:58:34;;;;;;;26.60;12.60;;;;;;;12.25;86.90;101253.45;108447;1259;22529;-80
2023/05/20 04:01:04;;;;;;;26.20;12.40;;;;;;;12.24;87.16;101251.98;108490;1270;22555;-80
2023/05/20 04:03:35;;;;;;;29.50;11.70;;;;;;;12.24;86.93;101255.35;108681;1270;22518;-80
2023/05/20 04:06:06;;;;;;;29.20;13.20;;;;;;;12.24;87.06;101253.83;108586;1270;22567;-81
2023/05/20 04:08:37;;;;;;;25.80;11.70;;;;;;;12.25;87.06;101257.31;108002;1270;22544;-81
2023/05/20 04:11:08;;;;;;;28.30;12.90;;;;;;;12.26;87.11;101260.86;108527;1267;22488;-81
2023/05/20 04:13:38;;;;;;;33.00;13.20;;;;;;;12.26;87.06;101260.14;108498;1267;22612;-80
2023/05/20 04:16:09;;;;;;;29.70;12.70;;;;;;;12.27;87.25;101262.20;108438;1274;23111;-82
2023/05/20 04:18:40;;;;;;;27.30;13.50;;;;;;;12.27;87.15;101260.95;108499;1270;22564;-81
2023/05/20 04:21:11;;;;;;;26.90;12.70;;;;;;;12.28;87.18;101263.56;108557;1269;22602;-82
2023/05/20 04:23:41;;;;;;;25.90;12.10;;;;;;;12.28;87.32;101261.17;108564;1270;22743;-81
2023/05/20 04:26:12;;;;;;;28.10;13.00;;;;;;;12.29;87.37;101265.92;108400;1270;22777;-81
2023/05/20 04:28:43;;;;;;;30.00;12.50;;;;;;;12.30;87.47;101267.86;108401;1274;23505;-81
2023/05/20 04:31:14;;;;;;;29.40;14.80;;;;;;;12.33;87.57;101266.09;108467;1262;22637;-81
2023/05/20 04:33:45;;;;;;;32.10;14.10;;;;;;;12.33;87.18;101265.25;108569;1263;24264;-81
2023/05/20 04:36:17;;;;;;;30.40;13.10;;;;;;;12.35;87.23;101262.45;108588;1266;23785;-81
2023/05/20 04:38:52;;;;;;;28.00;14.00;;;;;;;12.37;87.22;101257.50;108628;1267;23272;-81
2023/05/20 04:41:23;;;;;;;26.00;11.20;;;;;;;12.39;87.44;101262.14;108647;1267;22639;-81
2023/05/20 04:43:58;;;;;;;29.60;13.30;;;;;;;12.39;87.14;101255.23;108491;1274;22597;-81
2023/05/20 04:46:30;;;;;;;27.80;12.90;;;;;;;12.39;87.17;101255.64;108505;1274;22671;-82
2023/05/20 04:49:01;;;;;;;27.60;12.60;;;;;;;12.40;87.31;101253.36;108547;1274;22539;-81
2023/05/20 04:51:33;;;;;;;31.50;13.60;;;;;;;12.40;87.18;101255.50;108575;1266;25336;-81
2023/05/20 04:54:03;;;;;;;26.40;11.70;;;;;;;12.42;87.61;101257.04;108465;1270;22524;-81
2023/05/20 04:56:35;;;;;;;27.90;12.50;;;;;;;12.44;87.39;101257.90;108473;1270;22563;-80
2023/05/20 04:59:05;;;;;;;27.70;11.90;;;;;;;12.45;87.33;101255.91;108548;1263;22570;-81
2023/05/20 05:01:36;;;;;;;30.90;13.50;;;;;;;12.47;87.14;101258.33;108659;1267;22558;-81
2023/05/20 05:04:07;;;;;;;27.40;12.50;;;;;;;12.47;87.20;101256.57;108546;1270;22569;-81
2023/05/20 05:06:38;;;;;;;32.20;14.10;;;;;;;12.49;87.10;101253.59;108550;1266;22490;-81
2023/05/20 05:09:08;;;;;;;29.70;13.20;;;;;;;12.49;87.36;101252.96;108455;1267;22647;-81
2023/05/20 05:11:39;;;;;;;34.80;15.70;;;;;;;12.49;87.34;101250.05;108554;1266;22483;-81
2023/05/20 05:14:10;;;;;;;28.90;12.70;;;;;;;12.51;87.20;101249.90;108607;1266;22518;-81
2023/05/20 05:16:41;;;;;;;29.00;13.70;;;;;;;12.52;87.17;101247.78;108581;1272;22556;-81
2023/05/20 05:19:12;;;;;;;29.40;14.80;;;;;;;12.52;87.41;101248.56;108426;1270;22516;-81
2023/05/20 05:21:43;;;;;;;35.10;15.60;;;;;;;12.51;87.12;101247.58;108551;1267;22560;-79
2023/05/20 05:24:14;;;;;;;33.30;15.80;;;;;;;12.52;87.09;101250.73;108415;1266;22515;-79
2023/05/20 05:26:45;;;;;;;31.60;14.20;;;;;;;12.54;87.17;101250.44;108435;1270;22796;-79
2023/05/20 05:29:16;;;;;;;34.30;15.90;;;;;;;12.54;87.08;101250.55;108516;1266;22544;-80
2023/05/20 05:31:46;;;;;;;38.90;16.00;;;;;;;12.57;87.14;101253.06;108149;1266;22521;-80
2023/05/20 05:34:17;;;;;;;33.90;15.30;;;;;;;12.57;87.04;101260.16;108590;1274;22519;-80
2023/05/20 05:36:50;;;;;;;34.30;17.20;;;;;;;12.57;87.05;101261.94;108543;1266;22654;-80
2023/05/20 05:39:21;;;;;;;37.80;16.30;;;;;;;12.58;86.98;101263.65;108582;1274;25306;-81
2023/05/20 05:41:53;;;;;;;35.20;15.70;;;;;;;12.61;87.12;101262.64;108585;1266;22519;-80
2023/05/20 05:44:23;;;;;;;38.70;15.50;;;;;;;12.63;87.19;101261.52;108663;1274;22517;-79
2023/05/20 05:46:54;;;;;;;35.60;15.80;;;;;;;12.65;87.07;101265.20;108839;1272;25173;-80
2023/05/20 05:49:25;;;;;;;35.00;16.10;;;;;;;12.67;87.02;101268.46;108878;1267;23359;-80
2023/05/20 05:51:58;;;;;;;32.20;16.40;;;;;;;12.69;87.19;101269.65;108757;1269;23854;-80
2023/05/20 05:54:29;;;;;;;36.70;16.00;;;;;;;12.70;87.00;101266.78;108544;1270;23380;-80
2023/05/20 05:57:00;;;;;;;34.80;15.90;;;;;;;12.71;86.95;101264.44;108514;1266;25386;-82
2023/05/20 05:59:31;;;;;;;31.10;15.30;;;;;;;12.73;86.94;101266.12;108602;1273;22550;-81
2023/05/20 06:02:01;;;;;;;31.20;14.90;;;;;;;12.73;87.14;101268.67;108599;1270;22597;-81
2023/05/20 06:04:32;;;;;;;32.20;15.70;;;;;;;12.74;87.21;101266.37;108662;1267;23149;-81
2023/05/20 06:07:03;;;;;;;34.30;16.10;;;;;;;12.75;87.34;101266.59;108730;1274;22563;-81
2023/05/20 06:09:34;;;;;;;35.50;16.00;;;;;;;12.75;87.03;101273.13;108590;1274;23329;-82
2023/05/20 06:12:05;;;;;;;34.10;15.60;;;;;;;12.75;86.89;101274.55;108916;1266;22511;-80
2023/05/20 06:14:36;;;;;;;32.50;15.50;;;;;;;12.75;86.96;101277.24;108539;1266;25422;-80
2023/05/20 06:17:07;;;;;;;32.80;15.30;;;;;;;12.74;86.98;101276.40;108748;1270;22548;-81
2023/05/20 06:19:38;;;;;;;33.50;15.60;;;;;;;12.74;87.16;101277.42;108828;1267;22593;-80
2023/05/20 06:22:09;;;;;;;32.20;15.00;;;;;;;12.75;87.20;101282.97;108635;1266;22554;-80
2023/05/20 06:24:40;;;;;;;30.10;14.80;;;;;;;12.78;87.01;101282.15;108837;1266;22674;-80
2023/05/20 06:27:10;;;;;;;34.40;15.60;;;;;;;12.80;86.78;101274.77;108530;1266;22747;-80
2023/05/20 06:29:41;;;;;;;29.90;14.30;;;;;;;12.81;86.57;101270.21;108310;1266;22635;-80
2023/05/20 06:32:12;;;;;;;28.80;13.90;;;;;;;12.82;86.58;101276.91;108436;1266;26524;-80
2023/05/20 06:34:43;;;;;;;34.90;16.50;;;;;;;12.85;86.53;101275.72;108324;1266;22512;-80
2023/05/20 06:37:13;;;;;;;30.90;14.50;;;;;;;12.88;86.30;101270.79;108241;1266;22647;-80
2023/05/20 06:39:46;;;;;;;31.20;14.40;;;;;;;12.88;86.26;101271.23;108580;1266;22601;-80
2023/05/20 06:42:17;;;;;;;28.40;12.30;;;;;;;12.90;86.15;101272.29;108552;1262;22521;-80
2023/05/20 06:44:48;;;;;;;28.20;13.40;;;;;;;12.91;85.96;101279.10;108641;1270;22532;-79
2023/05/20 06:47:21;;;;;;;29.20;13.00;;;;;;;12.93;85.97;101286.48;107930;1266;22897;-79
2023/05/20 06:49:52;;;;;;;27.70;13.40;;;;;;;12.95;86.01;101285.36;107971;1266;22537;-79
2023/05/20 06:52:23;;;;;;;28.90;13.60;;;;;;;12.95;85.97;101285.27;108067;1251;22547;-80
2023/05/20 06:54:53;;;;;;;29.50;13.50;;;;;;;12.95;85.95;101283.79;108439;1266;22517;-79
2023/05/20 06:57:24;;;;;;;26.00;12.10;;;;;;;12.95;85.76;101283.27;108468;1272;22629;-81
2023/05/20 06:59:55;;;;;;;26.90;12.70;;;;;;;12.94;85.82;101286.31;108529;1274;22583;-81
2023/05/20 07:02:26;;;;;;;28.40;11.90;;;;;;;12.96;85.92;101289.46;108612;1266;22630;-79
2023/05/20 07:04:57;;;;;;;26.80;12.30;;;;;;;12.97;85.77;101285.52;108466;1267;24366;-80
2023/05/20 07:07:28;;;;;;;26.50;11.90;;;;;;;12.99;85.77;101281.15;108245;1267;22555;-80
2023/05/20 07:09:59;;;;;;;26.20;12.60;;;;;;;13.02;85.84;101280.77;108113;1269;24725;-81
2023/05/20 07:12:30;;;;;;;27.00;11.60;;;;;;;13.05;85.69;101283.46;107950;1266;22645;-80
2023/05/20 07:15:01;;;;;;;24.70;11.50;;;;;;;13.05;85.51;101276.67;107944;1269;25307;-80
2023/05/20 07:17:32;;;;;;;25.30;11.30;;;;;;;13.06;85.50;101280.06;108308;1266;22538;-79
2023/05/20 07:20:03;;;;;;;24.40;12.10;;;;;;;13.08;85.51;101279.90;108009;1266;22478;-80
2023/05/20 07:22:33;;;;;;;28.40;13.20;;;;;;;13.10;85.71;101277.46;107959;1274;24292;-80
2023/05/20 07:25:05;;;;;;;27.00;12.10;;;;;;;13.13;85.55;101274.38;108346;1267;22559;-79
2023/05/20 07:27:35;;;;;;;28.40;12.10;;;;;;;13.15;85.52;101267.48;108366;1267;22586;-79
2023/05/20 07:30:08;;;;;;;30.50;12.10;;;;;;;13.18;85.36;101262.13;108296;1267;22550;-79
2023/05/20 07:32:39;;;;;;;25.00;10.60;;;;;;;13.22;85.36;101263.94;107880;1269;24272;-79
2023/05/20 07:35:11;;;;;;;26.40;11.50;;;;;;;13.26;85.51;101264.36;107997;1270;22526;-79
2023/05/20 07:37:42;;;;;;;23.80;11.90;;;;;;;13.30;85.45;101257.27;108036;1267;25543;-79
2023/05/20 07:40:14;;;;;;;29.80;13.00;;;;;;;13.36;85.21;101257.40;108004;1274;25434;-80
2023/05/20 07:42:45;;;;;;;27.00;12.80;;;;;;;13.40;85.10;101261.44;108027;1274;22739;-79
2023/05/20 07:45:16;;;;;;;28.30;12.30;;;;;;;13.45;85.49;101261.36;108059;1269;25292;-79
2023/05/20 07:47:47;;;;;;;27.50;12.60;;;;;;;13.49;85.74;101260.11;108084;1274;22488;-80
2023/05/20 07:50:18;;;;;;;23.20;11.90;;;;;;;13.53;85.79;101258.48;108213;1271;22640;-79
2023/05/20 07:52:48;;;;;;;26.50;12.70;;;;;;;13.58;85.59;101257.27;108012;1267;22590;-80
2023/05/20 07:55:19;;;;;;;27.50;13.20;;;;;;;13.63;85.53;101261.70;108019;1274;22475;-79
2023/05/20 07:57:50;;;;;;;29.40;12.10;;;;;;;13.69;85.46;101262.27;107846;1270;22492;-80
2023/05/20 08:00:22;;;;;;;22.90;10.80;;;;;;;13.73;85.09;101263.17;107961;1274;22755;-80
2023/05/20 08:02:53;;;;;;;22.70;10.70;;;;;;;13.76;85.02;101260.13;107910;1270;24240;-79
2023/05/20 08:05:23;;;;;;;26.20;11.60;;;;;;;13.81;84.99;101262.73;108242;1270;22564;-79
2023/05/20 08:07:54;;;;;;;25.10;11.90;;;;;;;13.86;85.01;101252.16;108152;1267;22565;-81
2023/05/20 08:10:25;;;;;;;26.90;9.20;;;;;;;13.90;84.48;101249.38;108231;1263;24828;-80
2023/05/20 08:12:56;;;;;;;23.50;10.70;;;;;;;13.92;84.47;101247.90;108174;1273;23275;-80
2023/05/20 08:15:26;;;;;;;22.20;9.50;;;;;;;13.98;84.85;101244.71;108185;1266;22547;-80
2023/05/20 08:17:57;;;;;;;22.20;9.30;;;;;;;14.06;84.67;101244.13;108254;1274;25284;-80
2023/05/20 08:20:30;;;;;;;22.50;10.80;;;;;;;14.14;84.77;101235.20;108271;1272;22628;-80
2023/05/20 08:23:01;;;;;;;23.70;11.20;;;;;;;14.23;84.91;101229.98;108298;1270;22646;-82
2023/05/20 08:25:33;;;;;;;28.90;11.40;;;;;;;14.32;84.79;101224.50;108421;1267;22528;-81
2023/05/20 08:28:05;;;;;;;22.70;10.50;;;;;;;14.41;84.74;101226.43;108325;1274;22520;-81
2023/05/20 08:30:36;;;;;;;20.50;9.30;;;;;;;14.50;84.21;101225.77;108307;1274;23165;-80
2023/05/20 08:33:07;;;;;;;20.30;9.00;;;;;;;14.57;83.76;101222.33;108337;1273;25449;-81
2023/05/20 08:35:39;;;;;;;21.10;9.20;;;;;;;14.63;83.13;101219.48;108466;1270;23358;-80
2023/05/20 08:38:10;;;;;;;21.70;7.90;;;;;;;14.67;82.96;101219.96;108382;1273;24889;-80
2023/05/20 08:40:41;;;;;;;17.70;7.60;;;;;;;14.74;82.80;101215.42;108408;1267;22514;-80
2023/05/20 08:43:12;;;;;;;14.30;5.70;;;;;;;14.81;82.75;101214.27;108442;1272;22514;-83
2023/05/20 08:45:42;;;;;;;15.60;6.40;;;;;;;14.89;82.77;101207.70;108478;1266;22601;-82
2023/05/20 08:48:15;;;;;;;14.90;6.50;;;;;;;14.99;82.64;101208.56;108461;1270;25285;-80
2023/05/20 08:50:48;;;;;;;17.50;6.40;;;;;;;15.06;82.41;101208.40;108372;1266;24221;-79
2023/05/20 08:53:20;;;;;;;18.60;7.10;;;;;;;15.14;82.32;101210.42;108390;1266;24283;-81
2023/05/20 08:55:56;;;;;;;17.00;6.60;;;;;;;15.21;82.35;101210.65;108555;1270;22478;-81
2023/05/20 08:58:29;;;;;;;13.90;5.50;;;;;;;15.30;82.50;101214.33;108080;1266;22626;-80
2023/05/20 09:01:00;;;;;;;20.00;6.00;;;;;;;15.38;82.07;101212.34;108049;1266;25414;-80
2023/05/20 09:03:31;;;;;;;16.10;6.50;;;;;;;15.44;81.70;101210.45;107963;1268;22586;-79
2023/05/20 09:06:07;;;;;;;18.40;6.90;;;;;;;15.48;81.83;101206.84;108441;1267;22475;-80
2023/05/20 09:08:38;;;;;;;17.10;5.80;;;;;;;15.55;81.79;101206.05;108325;1271;22513;-80
2023/05/20 09:11:12;;;;;;;19.40;6.50;;;;;;;15.63;81.95;101210.06;108336;1267;22519;-81
2023/05/20 09:13:43;;;;;;;18.20;7.00;;;;;;;15.71;81.81;101209.36;108458;1267;25552;-81
2023/05/20 09:16:14;;;;;;;19.50;6.50;;;;;;;15.80;81.56;101214.09;108316;1274;22541;-82
2023/05/20 09:18:44;;;;;;;17.00;5.60;;;;;;;15.89;81.21;101217.07;107939;1260;25434;-79
2023/05/20 09:21:15;;;;;;;16.30;5.50;;;;;;;15.95;81.12;101217.91;108064;1267;24853;-80
2023/05/20 09:23:52;;;;;;;16.40;6.00;;;;;;;16.01;80.90;101212.71;108513;1266;22585;-81
2023/05/20 09:26:23;;;;;;;16.80;6.10;;;;;;;16.07;80.86;101210.02;108327;1266;26621;-81
2023/05/20 09:28:57;;;;;;;18.00;6.10;;;;;;;16.11;80.36;101213.91;108368;1266;24182;-80
2023/05/20 09:31:32;;;;;;;17.40;7.40;;;;;;;16.18;80.57;101212.55;108455;1267;22520;-80
2023/05/20 09:34:03;;;;;;;15.90;6.20;;;;;;;16.24;80.55;101210.18;108034;1266;25390;-81
2023/05/20 09:36:36;;;;;;;19.80;6.10;;;;;;;16.30;79.75;101208.70;108397;1266;22599;-82
2023/05/20 09:39:12;;;;;;;14.30;6.10;;;;;;;16.32;79.32;101207.90;108478;1269;22519;-82
2023/05/20 09:42:00;;;;;;;15.40;5.60;;;;;;;16.34;79.07;101201.67;108291;1270;22536;-82
2023/05/20 09:44:31;;;;;;;15.60;6.40;;;;;;;16.34;78.91;101190.45;108340;1266;22516;-80
2023/05/20 09:47:03;;;;;;;18.00;6.40;;;;;;;16.37;79.13;101188.91;108327;1272;22599;-81
2023/05/20 09:49:35;;;;;;;14.90;6.40;;;;;;;16.45;79.25;101189.48;108397;1266;22614;-81
2023/05/20 09:52:07;;;;;;;15.70;6.40;;;;;;;16.53;79.00;101183.14;108356;1251;25424;-81
2023/05/20 09:54:39;;;;;;;18.30;7.40;;;;;;;16.57;78.76;101185.45;108379;1270;22479;-81
2023/05/20 09:57:12;;;;;;;15.70;6.80;;;;;;;16.64;79.04;101184.43;108326;1266;24387;-82
2023/05/20 09:59:45;;;;;;;16.50;7.80;;;;;;;16.71;78.89;101186.76;108333;1267;24710;-82
2023/05/20 10:02:17;;;;;;;15.60;6.50;;;;;;;16.78;78.75;101185.17;108348;1266;25421;-82
2023/05/20 10:04:53;;;;;;;14.10;6.20;;;;;;;16.84;78.41;101182.60;108403;1267;22601;-82
2023/05/20 10:08:01;;;;;;;18.70;6.30;;;;;;;16.89;78.58;101185.32;108533;1269;22514;-80
2023/05/20 10:10:43;;;;;;;15.50;6.20;;;;;;;16.95;77.72;101186.56;107855;1272;26642;-82
2023/05/20 10:13:26;;;;;;;15.90;6.60;;;;;;;16.98;77.34;101183.76;107802;1268;25294;-81
2023/05/20 10:16:04;;;;;;;16.80;7.60;;;;;;;17.03;77.57;101182.10;107841;1278;24279;-81
2023/05/20 10:18:50;;;;;;;14.50;6.40;;;;;;;17.05;77.55;101180.68;107832;1272;25946;-81
2023/05/20 10:21:24;;;;;;;16.80;7.30;;;;;;;17.07;77.42;101179.46;107602;1279;22474;-81
2023/05/20 10:24:13;;;;;;;16.50;6.90;;;;;;;17.13;77.39;101179.70;107150;1272;24244;-81
2023/05/20 10:26:44;;;;;;;19.10;6.90;;;;;;;17.15;77.44;101185.95;107762;1272;22524;-80
2023/05/20 10:29:18;;;;;;;17.20;7.20;;;;;;;17.16;77.30;101186.66;107838;1272;22542;-81
2023/05/20 10:31:55;;;;;;;17.30;7.70;;;;;;;17.18;77.32;101188.88;107766;1276;22618;-81
2023/05/20 10:34:26;;;;;;;17.40;7.20;;;;;;;17.18;77.22;101187.34;107791;1275;22565;-81
2023/05/20 10:37:03;;;;;;;18.30;6.90;;;;;;;17.17;77.00;101182.56;107843;1272;24266;-81
2023/05/20 10:39:34;;;;;;;16.70;7.80;;;;;;;17.18;76.82;101174.77;107900;1279;26646;-81
2023/05/20 10:42:11;;;;;;;19.60;8.60;;;;;;;17.19;76.42;101166.30;107808;1268;22537;-81
2023/05/20 10:44:48;;;;;;;16.80;6.90;;;;;;;17.17;76.10;101160.71;107875;1272;24206;-82
2023/05/20 10:47:19;;;;;;;19.40;7.90;;;;;;;17.16;76.04;101160.71;107862;1272;22530;-81
2023/05/20 10:49:50;;;;;;;15.60;6.40;;;;;;;17.17;76.05;101165.68;108272;1271;22510;-83
2023/05/20 10:52:21;;;;;;;17.70;7.60;;;;;;;17.14;75.34;101161.81;108281;1266;22527;-81
2023/05/20 10:55:00;;;;;;;16.00;7.30;;;;;;;17.11;75.83;101158.19;108585;1269;22504;-87
2023/05/20 10:57:31;;;;;;;17.40;6.90;;;;;;;17.18;76.15;101153.48;108436;1260;27081;-82
2023/05/20 11:00:09;;;;;;;15.30;6.70;;;;;;;17.26;75.82;101155.12;108444;1266;26335;-82
2023/05/20 11:02:43;;;;;;;17.40;7.10;;;;;;;17.29;75.53;101148.53;108277;1266;24739;-82
2023/05/20 11:05:16;;;;;;;17.20;6.80;;;;;;;17.34;75.86;101147.58;108301;1270;24190;-81
2023/05/20 11:07:47;;;;;;;17.60;7.00;;;;;;;17.37;75.65;101143.14;108323;1266;22573;-81
2023/05/20 11:10:22;;;;;;;15.50;6.50;;;;;;;17.41;76.08;101142.48;108352;1271;22582;-81
2023/05/20 11:12:53;;;;;;;18.30;6.90;;;;;;;17.46;76.03;101141.44;108362;1266;25092;-81
2023/05/20 11:15:25;;;;;;;21.00;7.50;;;;;;;17.50;75.83;101142.70;108347;1268;22486;-80
2023/05/20 11:17:58;;;;;;;17.50;7.10;;;;;;;17.56;75.58;101139.98;108325;1274;22479;-80
2023/05/20 11:20:29;;;;;;;14.90;6.10;;;;;;;17.60;75.16;101133.73;108216;1274;22514;-81
2023/05/20 11:22:59;;;;;;;16.50;7.20;;;;;;;17.64;75.24;101129.02;108389;1270;25309;-80
2023/05/20 11:25:30;;;;;;;16.80;6.70;;;;;;;17.69;75.16;101122.13;108396;1267;22562;-81